Time;durP1;ratioP1;P1;durP2;ratioP2;P2;SDS_P1;SDS_P2;PMS_P1;PMS_P2;Temp;Humidity;BMP_temperature;BMP_pressure;BME280_temperature;BME280_humidity;BME280_pressure;Samples;Min_cycle;Max_cycle;Signal;HPM_P1;HPM_P2
2021/08/16 00:01:35;;;;;;;16.37;13.10;;;21.00;99.90;;;;;;5102147;28;20187;-40
2021/08/16 00:04:00;;;;;;;17.67;14.43;;;21.10;99.90;;;;;;5119914;28;20497;-42
2021/08/16 00:06:26;;;;;;;13.63;12.20;;;21.10;99.90;;;;;;5120013;28;20278;-42
2021/08/16 00:08:52;;;;;;;14.00;12.73;;;21.10;99.90;;;;;;5119883;28;20203;-41
2021/08/16 00:11:18;;;;;;;13.47;12.20;;;21.10;99.90;;;;;;5119908;28;20308;-42
2021/08/16 00:13:43;;;;;;;13.87;12.67;;;21.10;99.90;;;;;;5120255;28;20409;-42
2021/08/16 00:16:09;;;;;;;15.50;14.00;;;21.20;99.90;;;;;;5119951;28;20176;-41
2021/08/16 00:18:35;;;;;;;14.67;13.30;;;21.20;99.90;;;;;;5119697;28;20199;-42
2021/08/16 00:21:02;;;;;;;14.70;13.30;;;21.20;99.90;;;;;;5119849;28;20343;-41
2021/08/16 00:23:28;;;;;;;15.27;13.83;;;21.20;99.90;;;;;;5118868;28;20420;-42
2021/08/16 00:25:54;;;;;;;14.57;13.20;;;21.20;99.90;;;;;;5101331;28;20469;-42
2021/08/16 00:28:20;;;;;;;13.20;12.03;;;21.20;99.90;;;;;;5119349;28;20179;-43
2021/08/16 00:30:45;;;;;;;15.20;13.80;;;21.20;99.90;;;;;;5118871;28;20168;-42
2021/08/16 00:33:11;;;;;;;14.83;13.57;;;21.20;99.90;;;;;;5119178;28;20409;-42
2021/08/16 00:35:37;;;;;;;14.00;12.70;;;21.20;99.90;;;;;;5119162;28;20684;-42
2021/08/16 00:38:03;;;;;;;15.00;13.67;;;21.20;99.90;;;;;;5101231;28;20409;-42
2021/08/16 00:40:29;;;;;;;14.10;12.80;;;21.20;99.90;;;;;;5119098;28;20180;-40
2021/08/16 00:42:55;;;;;;;15.10;13.60;;;21.20;99.90;;;;;;5118938;28;20823;-42
2021/08/16 00:45:20;;;;;;;13.57;12.27;;;21.30;99.90;;;;;;5118276;28;20183;-42
2021/08/16 00:47:46;;;;;;;14.23;13.03;;;21.20;99.90;;;;;;5100825;28;20546;-42
2021/08/16 00:50:13;;;;;;;14.73;13.53;;;21.30;99.90;;;;;;5119369;28;20235;-42
2021/08/16 00:52:41;;;;;;;15.63;14.13;;;21.30;99.90;;;;;;5119057;28;20422;-42
2021/08/16 00:55:09;;;;;;;16.33;14.83;;;21.30;99.90;;;;;;5119134;28;20808;-42
2021/08/16 00:57:36;;;;;;;15.90;14.60;;;21.30;99.90;;;;;;5119105;28;20529;-44
2021/08/16 01:00:10;;;;;;;14.47;13.07;;;21.30;99.90;;;;;;5100868;28;20815;-41
2021/08/16 01:02:48;;;;;;;16.60;14.87;;;21.20;99.90;;;;;;5118552;28;20437;-42
2021/08/16 01:05:15;;;;;;;17.10;14.13;;;21.10;99.90;;;;;;5118796;28;20478;-41
2021/08/16 01:07:42;;;;;;;14.07;12.67;;;21.10;99.90;;;;;;5118870;28;20696;-42
2021/08/16 01:10:08;;;;;;;14.63;13.33;;;21.00;99.90;;;;;;5119385;28;20777;-42
2021/08/16 01:12:35;;;;;;;15.40;13.90;;;21.00;99.90;;;;;;5119662;28;20418;-42
2021/08/16 01:15:02;;;;;;;16.50;14.90;;;21.10;99.90;;;;;;5120115;28;20571;-41
2021/08/16 01:17:30;;;;;;;15.83;14.33;;;21.00;99.90;;;;;;5119809;28;20487;-42
2021/08/16 01:19:55;;;;;;;14.73;13.43;;;21.00;99.90;;;;;;5119915;28;20413;-42
2021/08/16 01:22:21;;;;;;;18.40;15.40;;;21.00;99.90;;;;;;5120386;28;20437;-42
2021/08/16 01:24:47;;;;;;;17.43;15.60;;;21.10;99.90;;;;;;5119908;28;20242;-42
2021/08/16 01:27:12;;;;;;;14.73;13.53;;;21.00;99.90;;;;;;5120243;28;20584;-42
2021/08/16 01:29:40;;;;;;;15.70;14.40;;;21.00;99.90;;;;;;5120103;28;20211;-40
2021/08/16 01:32:06;;;;;;;15.93;14.43;;;20.90;99.90;;;;;;5120136;28;20172;-41
2021/08/16 01:34:32;;;;;;;15.63;14.30;;;20.90;99.90;;;;;;5120351;28;20774;-42
2021/08/16 01:37:00;;;;;;;18.77;15.03;;;20.90;99.90;;;;;;5119794;28;20461;-42
2021/08/16 01:39:26;;;;;;;17.90;16.30;;;20.80;99.90;;;;;;5119691;28;20183;-42
2021/08/16 01:41:53;;;;;;;15.03;13.57;;;20.80;99.90;;;;;;5119659;28;20476;-42
2021/08/16 01:44:20;;;;;;;16.40;14.37;;;20.80;99.90;;;;;;5119585;28;20415;-42
2021/08/16 01:46:46;;;;;;;15.23;13.73;;;20.80;99.90;;;;;;5119751;28;20470;-42
2021/08/16 01:49:12;;;;;;;14.97;13.67;;;20.80;99.90;;;;;;5101920;28;20797;-41
2021/08/16 01:51:39;;;;;;;14.80;13.50;;;20.80;99.90;;;;;;5101747;28;20425;-42
2021/08/16 01:54:05;;;;;;;15.20;13.80;;;20.80;99.90;;;;;;5119938;28;20414;-41
2021/08/16 01:56:31;;;;;;;16.50;14.77;;;20.80;99.90;;;;;;5101511;28;20429;-41
2021/08/16 01:58:56;;;;;;;14.87;13.43;;;20.80;99.90;;;;;;5119519;28;20444;-42
2021/08/16 02:01:22;;;;;;;16.90;15.10;;;20.80;99.90;;;;;;5119410;28;20184;-42
2021/08/16 02:03:48;;;;;;;14.20;12.80;;;20.70;99.90;;;;;;5119799;28;20254;-42
2021/08/16 02:06:14;;;;;;;15.60;14.10;;;20.70;99.90;;;;;;5119298;28;20941;-42
2021/08/16 02:08:40;;;;;;;15.53;14.10;;;20.80;99.90;;;;;;5119209;28;20199;-42
2021/08/16 02:11:08;;;;;;;14.80;13.50;;;20.80;99.90;;;;;;5119339;28;20426;-42
2021/08/16 02:13:34;;;;;;;14.37;12.90;;;20.70;99.90;;;;;;5119660;28;20424;-42
2021/08/16 02:15:59;;;;;;;15.23;13.80;;;20.70;99.90;;;;;;5119050;28;20878;-42
2021/08/16 02:18:25;;;;;;;13.37;12.07;;;20.70;99.90;;;;;;5119040;28;20832;-41
2021/08/16 02:20:51;;;;;;;13.50;11.20;;;20.70;99.90;;;;;;5119165;28;20258;-41
2021/08/16 02:23:16;;;;;;;14.50;13.10;;;20.70;99.90;;;;;;5119136;28;20176;-42
2021/08/16 02:25:42;;;;;;;16.33;13.20;;;20.70;99.90;;;;;;5118873;28;20462;-42
2021/08/16 02:28:08;;;;;;;13.60;12.30;;;20.60;99.90;;;;;;5118993;28;20203;-42
2021/08/16 02:30:34;;;;;;;13.23;11.83;;;20.60;99.90;;;;;;5118794;28;20413;-42
2021/08/16 02:33:00;;;;;;;13.53;12.33;;;20.60;99.90;;;;;;5119076;28;20171;-42
2021/08/16 02:35:25;;;;;;;12.63;11.43;;;20.50;99.90;;;;;;5101185;28;20410;-42
2021/08/16 02:37:51;;;;;;;12.87;11.03;;;20.50;99.90;;;;;;5119301;28;20561;-42
2021/08/16 02:40:17;;;;;;;13.33;11.90;;;20.50;99.90;;;;;;5119095;28;20573;-41
2021/08/16 02:42:43;;;;;;;12.60;11.50;;;20.50;99.90;;;;;;5101142;28;20207;-41
2021/08/16 02:45:09;;;;;;;13.80;12.50;;;20.40;99.90;;;;;;5118587;28;20707;-41
2021/08/16 02:47:35;;;;;;;13.17;11.77;;;20.40;99.90;;;;;;5118820;28;20218;-41
2021/08/16 02:50:02;;;;;;;13.77;12.40;;;20.30;99.90;;;;;;5118494;28;20472;-41
2021/08/16 02:52:27;;;;;;;13.00;11.70;;;20.30;99.90;;;;;;5118651;28;20704;-42
2021/08/16 02:54:55;;;;;;;12.17;11.17;;;20.30;99.90;;;;;;5097490;28;20426;-44
2021/08/16 02:57:21;;;;;;;14.27;12.77;;;20.30;99.90;;;;;;5088622;28;20196;-41
2021/08/16 02:59:47;;;;;;;15.47;12.40;;;20.30;99.90;;;;;;5077305;28;20676;-42
2021/08/16 03:02:13;;;;;;;17.27;14.30;;;20.30;99.90;;;;;;5076357;28;20427;-41
2021/08/16 03:04:38;;;;;;;13.20;11.97;;;20.30;99.90;;;;;;5076567;28;20434;-45
2021/08/16 03:07:04;;;;;;;13.30;12.00;;;20.20;99.90;;;;;;5076367;28;20181;-44
2021/08/16 03:09:31;;;;;;;13.40;12.10;;;20.20;99.90;;;;;;5076132;28;20593;-44
2021/08/16 03:11:57;;;;;;;14.23;12.93;;;20.10;99.90;;;;;;5077300;28;20260;-44
2021/08/16 03:14:23;;;;;;;16.30;13.80;;;20.00;99.90;;;;;;5077127;28;20415;-44
2021/08/16 03:16:49;;;;;;;15.13;13.70;;;19.90;99.90;;;;;;5077926;28;20423;-44
2021/08/16 03:19:15;;;;;;;14.70;13.27;;;19.80;99.90;;;;;;5077748;28;20493;-44
2021/08/16 03:21:41;;;;;;;16.10;14.60;;;19.70;99.90;;;;;;5077965;28;20196;-45
2021/08/16 03:24:07;;;;;;;16.47;14.77;;;19.60;99.90;;;;;;5079182;28;20423;-44
2021/08/16 03:26:32;;;;;;;14.87;13.47;;;19.60;99.90;;;;;;5097676;28;20585;-44
2021/08/16 03:28:58;;;;;;;19.43;14.30;;;19.50;99.90;;;;;;5097280;28;20204;-44
2021/08/16 03:31:24;;;;;;;15.87;14.27;;;19.40;99.90;;;;;;5097392;28;20176;-44
2021/08/16 03:33:50;;;;;;;16.43;14.73;;;19.40;99.90;;;;;;5096756;28;20414;-44
2021/08/16 03:36:15;;;;;;;16.40;14.83;;;19.30;99.90;;;;;;5096845;28;20216;-44
2021/08/16 03:38:41;;;;;;;17.07;15.47;;;19.30;99.90;;;;;;5097369;28;20172;-50
2021/08/16 03:41:07;;;;;;;15.70;14.33;;;19.20;99.90;;;;;;5097051;28;20577;-44
2021/08/16 03:43:33;;;;;;;16.40;14.70;;;19.20;99.90;;;;;;5098097;28;20411;-44
2021/08/16 03:45:59;;;;;;;16.67;15.03;;;19.20;99.90;;;;;;5097434;28;20181;-44
2021/08/16 03:48:25;;;;;;;16.73;14.90;;;19.10;99.90;;;;;;5106207;28;20460;-44
2021/08/16 03:50:51;;;;;;;17.50;15.77;;;19.10;99.90;;;;;;5100671;28;20844;-44
2021/08/16 03:53:16;;;;;;;16.63;14.90;;;19.00;99.90;;;;;;5097046;28;20402;-44
2021/08/16 03:55:42;;;;;;;17.03;15.43;;;19.10;99.90;;;;;;5097561;28;20411;-44
2021/08/16 03:58:08;;;;;;;18.07;16.27;;;19.10;99.90;;;;;;5097965;28;20165;-45
2021/08/16 04:00:34;;;;;;;17.10;15.40;;;19.10;99.90;;;;;;5097685;28;20172;-44
2021/08/16 04:03:00;;;;;;;16.90;15.40;;;19.00;99.90;;;;;;5097846;28;20418;-45
2021/08/16 04:05:25;;;;;;;17.50;15.90;;;19.00;99.90;;;;;;5097775;28;20820;-46
2021/08/16 04:07:52;;;;;;;16.70;15.07;;;19.00;99.90;;;;;;5097407;28;20208;-46
2021/08/16 04:10:18;;;;;;;16.93;15.43;;;18.90;99.90;;;;;;5079796;28;20586;-46
2021/08/16 04:12:44;;;;;;;16.23;14.70;;;18.90;99.90;;;;;;5097202;28;20461;-45
2021/08/16 04:15:15;;;;;;;16.20;14.70;;;18.90;99.90;;;;;;5097508;28;20998;-46
2021/08/16 04:17:41;;;;;;;18.87;16.67;;;18.90;99.90;;;;;;5105761;28;20425;-46
2021/08/16 04:20:08;;;;;;;16.60;14.90;;;18.90;99.90;;;;;;5118928;28;20437;-46
2021/08/16 04:22:34;;;;;;;16.80;15.23;;;18.90;99.90;;;;;;5103801;28;20430;-46
2021/08/16 04:25:00;;;;;;;18.33;16.63;;;18.90;99.90;;;;;;5120887;28;20527;-46
2021/08/16 04:27:26;;;;;;;17.90;15.83;;;18.90;99.90;;;;;;5121263;28;20353;-46
2021/08/16 04:29:52;;;;;;;18.30;16.60;;;18.90;99.90;;;;;;5120158;28;20453;-46
2021/08/16 04:32:19;;;;;;;20.73;16.60;;;18.90;99.90;;;;;;5119973;28;20428;-45
2021/08/16 04:34:45;;;;;;;18.33;16.47;;;18.90;99.90;;;;;;5102323;28;20198;-46
2021/08/16 04:37:10;;;;;;;19.20;17.50;;;18.90;99.90;;;;;;5108832;28;20493;-45
2021/08/16 04:39:36;;;;;;;18.97;17.00;;;18.90;99.90;;;;;;5099942;28;20834;-45
2021/08/16 04:42:02;;;;;;;19.07;17.10;;;18.90;99.90;;;;;;5099959;28;20195;-46
2021/08/16 04:44:28;;;;;;;18.10;16.30;;;18.90;99.90;;;;;;5100729;28;20168;-45
2021/08/16 04:46:54;;;;;;;19.00;17.30;;;18.90;99.90;;;;;;5102231;28;20959;-45
2021/08/16 04:49:19;;;;;;;16.30;14.13;;;19.00;99.90;;;;;;5120529;28;20821;-45
2021/08/16 04:51:45;;;;;;;15.73;14.20;;;19.00;99.90;;;;;;5120647;28;20599;-45
2021/08/16 04:54:11;;;;;;;16.20;14.60;;;19.00;99.90;;;;;;5120233;28;20213;-45
2021/08/16 04:56:38;;;;;;;15.40;13.93;;;19.10;99.90;;;;;;5120397;28;20275;-46
2021/08/16 04:59:04;;;;;;;14.37;12.83;;;19.10;99.90;;;;;;5120718;28;20422;-46
2021/08/16 05:01:29;;;;;;;13.50;12.23;;;19.20;99.90;;;;;;5120835;28;20835;-46
2021/08/16 05:03:56;;;;;;;14.07;12.67;;;19.30;99.90;;;;;;5120279;28;20263;-46
2021/08/16 05:06:29;;;;;;;13.50;12.23;;;19.30;99.90;;;;;;5119677;28;20172;-46
2021/08/16 05:09:02;;;;;;;14.83;11.97;;;19.40;99.90;;;;;;5118586;28;20878;-46
2021/08/16 05:11:28;;;;;;;12.60;11.40;;;19.40;99.90;;;;;;5118660;28;21072;-45
2021/08/16 05:13:55;;;;;;;12.53;11.00;;;19.50;99.90;;;;;;5108731;28;20426;-46
2021/08/16 05:16:23;;;;;;;14.80;11.87;;;19.40;99.90;;;;;;5078913;28;20474;-45
2021/08/16 05:18:49;;;;;;;12.57;11.47;;;19.40;99.90;;;;;;5096018;28;20414;-45
2021/08/16 05:21:15;;;;;;;14.40;11.50;;;19.40;99.90;;;;;;5119823;28;20490;-46
2021/08/16 05:23:41;;;;;;;14.33;11.97;;;19.30;99.90;;;;;;5120086;28;20410;-45
2021/08/16 05:26:06;;;;;;;11.73;10.40;;;19.40;99.90;;;;;;5119181;28;20223;-46
2021/08/16 05:28:32;;;;;;;12.47;11.27;;;19.50;99.90;;;;;;5118682;28;20464;-45
2021/08/16 05:30:58;;;;;;;10.33;9.40;;;19.50;99.90;;;;;;5117825;28;20571;-45
2021/08/16 05:33:24;;;;;;;12.60;11.40;;;19.50;99.90;;;;;;5117761;28;20175;-46
2021/08/16 05:35:50;;;;;;;10.30;9.50;;;19.60;99.90;;;;;;5118088;28;20533;-45
2021/08/16 05:38:15;;;;;;;10.90;9.90;;;19.70;99.90;;;;;;5117303;28;20680;-45
2021/08/16 05:40:41;;;;;;;11.87;10.67;;;19.80;99.90;;;;;;5117646;28;20559;-46
2021/08/16 05:43:07;;;;;;;12.33;11.10;;;19.80;99.90;;;;;;5118442;28;20562;-46
2021/08/16 05:45:33;;;;;;;10.87;9.87;;;19.80;99.90;;;;;;5118758;28;20172;-45
2021/08/16 05:47:58;;;;;;;10.43;9.53;;;20.00;99.90;;;;;;5119793;28;20460;-45
2021/08/16 05:50:25;;;;;;;10.87;9.53;;;20.10;99.90;;;;;;5118945;28;20203;-46
2021/08/16 05:52:52;;;;;;;14.50;10.37;;;20.20;99.90;;;;;;5119650;28;20211;-45
2021/08/16 05:55:18;;;;;;;10.77;9.53;;;20.10;99.90;;;;;;5101849;28;20475;-45
2021/08/16 05:57:44;;;;;;;11.43;9.93;;;20.10;99.90;;;;;;5119269;28;20823;-45
2021/08/16 06:00:11;;;;;;;11.23;9.33;;;20.10;99.90;;;;;;5118227;28;20746;-45
2021/08/16 06:02:36;;;;;;;10.77;9.63;;;20.10;99.90;;;;;;5117932;28;20430;-45
2021/08/16 06:05:04;;;;;;;9.80;8.90;;;20.20;99.90;;;;;;5117566;28;20433;-46
2021/08/16 06:07:30;;;;;;;12.47;9.90;;;20.20;99.90;;;;;;5117206;28;20658;-46
2021/08/16 06:09:56;;;;;;;10.67;8.53;;;20.30;99.90;;;;;;5117408;28;20534;-46
2021/08/16 06:12:21;;;;;;;8.53;7.73;;;20.40;99.90;;;;;;5117739;28;20263;-46
2021/08/16 06:14:47;;;;;;;10.50;8.13;;;20.40;99.90;;;;;;5117729;28;20787;-46
2021/08/16 06:17:13;;;;;;;8.60;7.70;;;20.40;99.90;;;;;;5117318;28;20275;-46
2021/08/16 06:19:39;;;;;;;8.57;7.53;;;20.40;99.90;;;;;;5110577;28;20261;-46
2021/08/16 06:22:05;;;;;;;8.20;7.40;;;20.40;99.90;;;;;;5097590;28;20252;-46
2021/08/16 06:24:33;;;;;;;10.30;7.10;;;20.40;99.90;;;;;;5102083;28;20852;-46
2021/08/16 06:27:00;;;;;;;6.70;6.10;;;20.30;99.90;;;;;;5111414;28;20923;-47
2021/08/16 06:29:26;;;;;;;9.10;6.77;;;20.40;99.90;;;;;;5097191;28;20859;-46
2021/08/16 06:31:52;;;;;;;7.10;5.53;;;20.20;99.90;;;;;;5097258;28;20447;-46
2021/08/16 06:34:18;;;;;;;7.43;6.50;;;20.20;99.60;;;;;;5097671;28;20406;-46
2021/08/16 06:36:50;;;;;;;8.27;6.20;;;20.30;99.60;;;;;;5098645;28;20565;-47
2021/08/16 06:39:18;;;;;;;8.70;6.17;;;20.40;99.30;;;;;;5080626;28;20191;-46
2021/08/16 06:41:49;;;;;;;8.87;6.27;;;20.50;99.30;;;;;;5096853;28;20795;-46
2021/08/16 06:44:19;;;;;;;7.90;5.70;;;20.50;98.70;;;;;;5096271;28;20429;-46
2021/08/16 06:46:46;;;;;;;8.00;6.37;;;20.40;98.60;;;;;;5107785;28;20434;-46
2021/08/16 06:49:12;;;;;;;7.50;6.03;;;20.60;98.20;;;;;;5116797;28;20692;-46
2021/08/16 06:51:38;;;;;;;5.90;5.30;;;20.70;98.30;;;;;;5115910;28;20413;-46
2021/08/16 06:54:04;;;;;;;6.13;4.93;;;21.00;97.50;;;;;;5097627;28;20505;-46
2021/08/16 06:56:30;;;;;;;6.77;5.13;;;21.50;96.90;;;;;;5115357;28;20454;-46
2021/08/16 06:58:55;;;;;;;6.27;5.30;;;21.70;96.60;;;;;;5115852;28;20171;-46
2021/08/16 07:01:22;;;;;;;7.37;5.60;;;21.90;96.00;;;;;;5116698;28;20429;-46
2021/08/16 07:03:48;;;;;;;8.13;5.47;;;21.80;95.90;;;;;;5115835;28;20241;-46
2021/08/16 07:06:15;;;;;;;6.20;5.37;;;21.30;95.60;;;;;;5115893;28;20437;-46
2021/08/16 07:08:40;;;;;;;7.20;4.83;;;21.30;96.40;;;;;;5116891;28;20707;-46
2021/08/16 07:11:06;;;;;;;9.77;5.73;;;21.40;96.20;;;;;;5116125;28;20517;-46
2021/08/16 07:13:32;;;;;;;7.27;4.80;;;21.30;96.10;;;;;;5117144;28;20405;-46
2021/08/16 07:15:58;;;;;;;8.77;5.50;;;21.70;96.00;;;;;;5117169;28;20179;-46
2021/08/16 07:18:24;;;;;;;5.90;4.80;;;21.50;95.10;;;;;;5116679;28;20175;-46
2021/08/16 07:20:49;;;;;;;5.90;5.13;;;21.50;95.50;;;;;;5115844;28;20485;-46
2021/08/16 07:23:15;;;;;;;8.50;5.10;;;21.60;95.30;;;;;;5116829;28;20487;-46
2021/08/16 07:25:41;;;;;;;7.03;5.30;;;21.40;95.00;;;;;;5115696;28;20256;-46
2021/08/16 07:28:07;;;;;;;6.90;5.37;;;21.20;95.40;;;;;;5115590;28;20183;-46
2021/08/16 07:30:33;;;;;;;5.17;4.67;;;21.40;95.20;;;;;;5115640;28;20200;-46
2021/08/16 07:33:00;;;;;;;7.13;5.57;;;21.00;95.00;;;;;;5114654;28;20447;-46
2021/08/16 07:35:26;;;;;;;6.40;5.13;;;21.00;95.20;;;;;;5115466;28;20449;-46
2021/08/16 07:37:51;;;;;;;6.57;5.87;;;21.10;95.60;;;;;;5115050;28;20520;-46
2021/08/16 07:40:19;;;;;;;9.17;6.23;;;21.40;95.40;;;;;;5115891;28;20207;-46
2021/08/16 07:42:45;;;;;;;6.60;5.20;;;21.70;94.90;;;;;;5116214;28;20210;-46
2021/08/16 07:45:11;;;;;;;5.57;4.93;;;21.70;94.40;;;;;;5116592;28;20801;-46
2021/08/16 07:47:37;;;;;;;7.77;5.30;;;21.70;94.60;;;;;;5115653;28;20428;-46
2021/08/16 07:50:07;;;;;;;6.10;5.40;;;22.10;94.20;;;;;;5116057;28;20680;-46
2021/08/16 07:52:40;;;;;;;5.90;4.67;;;22.40;93.10;;;;;;5116123;28;20182;-46
2021/08/16 07:55:07;;;;;;;5.37;4.67;;;22.70;92.90;;;;;;5118565;28;20452;-46
2021/08/16 07:57:33;;;;;;;7.27;4.87;;;23.00;92.60;;;;;;5119872;28;20819;-46
2021/08/16 08:00:00;;;;;;;5.63;4.50;;;22.80;92.50;;;;;;5120704;28;20478;-46
2021/08/16 08:02:37;;;;;;;5.07;4.17;;;23.00;92.70;;;;;;5120120;28;20187;-46
2021/08/16 08:05:05;;;;;;;6.53;5.13;;;22.70;92.30;;;;;;5121255;28;20462;-46
2021/08/16 08:07:31;;;;;;;5.73;4.57;;;22.40;92.90;;;;;;5121038;28;20425;-46
2021/08/16 08:09:57;;;;;;;5.53;4.67;;;22.70;92.90;;;;;;5121295;28;20488;-47
2021/08/16 08:12:22;;;;;;;6.03;4.40;;;23.30;92.50;;;;;;5121074;28;20230;-46
2021/08/16 08:14:48;;;;;;;7.20;5.10;;;23.80;91.90;;;;;;5120010;28;20418;-47
2021/08/16 08:17:14;;;;;;;6.20;4.80;;;23.90;90.40;;;;;;5119697;28;20187;-46
2021/08/16 08:19:39;;;;;;;9.30;4.90;;;23.80;89.50;;;;;;5119352;28;20187;-46
2021/08/16 08:22:05;;;;;;;5.80;4.80;;;23.90;89.00;;;;;;5118764;28;20190;-46
2021/08/16 08:24:31;;;;;;;5.43;4.10;;;24.10;87.60;;;;;;5119346;28;20468;-46
2021/08/16 08:26:56;;;;;;;9.53;4.50;;;24.40;87.10;;;;;;5119236;28;20241;-47
2021/08/16 08:29:23;;;;;;;8.23;5.07;;;25.00;85.70;;;;;;5119593;28;20211;-47
2021/08/16 08:31:50;;;;;;;5.00;4.50;;;25.80;83.10;;;;;;5102569;28;20204;-47
2021/08/16 08:34:16;;;;;;;5.23;4.70;;;26.30;79.80;;;;;;5119365;28;20409;-46
2021/08/16 08:36:44;;;;;;;5.90;5.23;;;26.60;79.60;;;;;;5120134;28;20451;-47
2021/08/16 08:39:10;;;;;;;5.83;5.23;;;26.70;78.30;;;;;;5119577;28;20488;-47
2021/08/16 08:41:37;;;;;;;6.73;5.43;;;27.40;77.60;;;;;;5119630;28;20535;-47
2021/08/16 08:44:10;;;;;;;6.03;5.13;;;28.50;75.00;;;;;;5119439;28;20414;-47
2021/08/16 08:46:37;;;;;;;7.80;6.43;;;28.30;71.20;;;;;;5119987;28;20436;-47
2021/08/16 08:49:03;;;;;;;5.83;4.60;;;28.30;69.80;;;;;;5120507;28;20493;-47
2021/08/16 08:51:29;;;;;;;7.13;5.17;;;28.70;69.30;;;;;;5119541;28;20459;-46
2021/08/16 08:53:55;;;;;;;6.20;5.30;;;29.00;67.00;;;;;;5119323;28;20945;-47
2021/08/16 08:56:21;;;;;;;6.00;4.27;;;29.30;65.10;;;;;;5119701;28;20172;-47
2021/08/16 08:58:46;;;;;;;7.03;4.80;;;28.50;64.50;;;;;;5120196;28;20168;-47
2021/08/16 09:01:12;;;;;;;9.80;5.83;;;27.90;68.00;;;;;;5119804;28;20459;-46
2021/08/16 09:03:52;;;;;;;6.53;5.10;;;27.70;67.40;;;;;;5119208;28;20176;-47
2021/08/16 09:06:47;;;;;;;7.57;5.33;;;26.30;71.10;;;;;;5119316;28;20259;-47
2021/08/16 09:09:13;;;;;;;7.13;5.60;;;25.50;72.50;;;;;;5098273;28;20481;-47
2021/08/16 09:11:52;;;;;;;6.07;5.07;;;25.50;74.70;;;;;;5119675;28;20494;-47
2021/08/16 09:14:19;;;;;;;7.30;5.30;;;24.90;76.10;;;;;;5119147;28;20835;-46
2021/08/16 09:16:46;;;;;;;7.47;6.00;;;24.50;76.50;;;;;;5119803;28;20440;-46
2021/08/16 09:19:18;;;;;;;7.17;5.67;;;24.20;76.90;;;;;;5119339;28;20424;-46
2021/08/16 09:21:53;;;;;;;8.50;6.40;;;23.70;77.20;;;;;;5119718;28;20879;-47
2021/08/16 09:24:26;;;;;;;7.00;5.47;;;23.50;78.10;;;;;;5119051;28;20496;-46
2021/08/16 09:26:52;;;;;;;6.73;4.70;;;23.30;77.60;;;;;;5119503;28;20463;-46
2021/08/16 09:29:22;;;;;;;7.10;5.80;;;23.00;77.50;;;;;;5100149;28;20457;-46
2021/08/16 09:31:57;;;;;;;9.13;5.60;;;22.70;80.40;;;;;;5118839;28;20429;-47
2021/08/16 09:34:42;;;;;;;5.60;4.70;;;22.60;80.10;;;;;;5118572;28;20478;-47
2021/08/16 09:37:20;;;;;;;9.20;4.90;;;22.50;81.10;;;;;;5119023;28;20704;-46
2021/08/16 09:40:10;;;;;;;7.80;4.97;;;22.20;81.30;;;;;;5118389;28;20428;-46
2021/08/16 09:42:57;;;;;;;11.30;5.17;;;21.90;81.90;;;;;;5118410;28;20433;-47
2021/08/16 09:45:31;;;;;;;5.63;4.40;;;21.60;83.40;;;;;;5118569;28;20707;-47
2021/08/16 09:47:58;;;;;;;8.10;5.50;;;21.70;84.20;;;;;;5119591;28;20776;-46
2021/08/16 09:50:40;;;;;;;7.63;5.50;;;22.10;83.50;;;;;;5119079;28;20473;-46
2021/08/16 09:53:07;;;;;;;6.37;5.07;;;23.00;82.00;;;;;;5119353;28;20425;-46
2021/08/16 09:55:35;;;;;;;6.83;4.73;;;24.30;79.40;;;;;;5083786;28;20769;-47
2021/08/16 09:58:02;;;;;;;8.00;5.00;;;25.30;76.00;;;;;;5100917;28;20526;-48
2021/08/16 10:00:27;;;;;;;5.53;4.33;;;26.20;73.50;;;;;;5100878;28;20669;-47
2021/08/16 10:02:53;;;;;;;7.10;5.20;;;26.40;71.00;;;;;;5119536;28;20431;-47
2021/08/16 10:05:19;;;;;;;5.20;4.70;;;27.10;70.00;;;;;;5100793;28;20248;-47
2021/08/16 10:07:45;;;;;;;7.53;4.83;;;27.40;69.30;;;;;;5117835;28;20433;-47
2021/08/16 10:10:11;;;;;;;8.50;4.73;;;28.00;67.10;;;;;;5099782;28;20557;-47
2021/08/16 10:12:37;;;;;;;5.10;4.47;;;27.80;65.40;;;;;;5099066;28;20475;-47
2021/08/16 10:15:03;;;;;;;5.93;4.20;;;26.60;67.60;;;;;;5099181;28;20440;-47
2021/08/16 10:17:37;;;;;;;8.53;5.10;;;25.70;70.70;;;;;;5113855;28;20432;-47
2021/08/16 10:20:03;;;;;;;6.07;4.63;;;25.00;73.70;;;;;;5115865;28;20436;-47
2021/08/16 10:22:39;;;;;;;6.37;4.83;;;24.70;72.40;;;;;;5116880;28;20460;-47
2021/08/16 10:25:16;;;;;;;6.43;4.57;;;24.20;73.80;;;;;;5115796;28;20580;-47
2021/08/16 10:27:42;;;;;;;6.63;4.80;;;23.70;75.10;;;;;;5116460;28;20425;-47
2021/08/16 10:30:13;;;;;;;5.43;4.10;;;23.50;76.00;;;;;;5117087;28;20461;-47
2021/08/16 10:32:38;;;;;;;6.30;4.40;;;23.50;76.40;;;;;;5100018;28;20709;-47
2021/08/16 10:35:09;;;;;;;8.60;5.00;;;23.30;77.10;;;;;;5095333;28;20402;-47
2021/08/16 10:37:37;;;;;;;5.90;4.80;;;23.20;77.10;;;;;;5095748;28;20451;-47
2021/08/16 10:40:14;;;;;;;6.40;4.63;;;23.20;77.90;;;;;;5078064;28;20751;-47
2021/08/16 10:42:40;;;;;;;9.13;4.20;;;23.60;77.10;;;;;;5096175;28;20421;-47
2021/08/16 10:45:07;;;;;;;5.40;4.23;;;24.20;75.80;;;;;;5107302;28;20417;-47
2021/08/16 10:47:37;;;;;;;6.57;4.83;;;24.70;75.50;;;;;;5116255;28;20184;-47
2021/08/16 10:50:10;;;;;;;6.13;5.00;;;25.30;72.20;;;;;;5098165;28;20866;-47
2021/08/16 10:52:38;;;;;;;6.47;4.50;;;25.20;73.10;;;;;;5117084;28;20425;-47
2021/08/16 10:55:23;;;;;;;5.07;4.57;;;25.80;71.50;;;;;;5117606;28;20405;-47
2021/08/16 10:57:49;;;;;;;8.03;4.10;;;26.10;69.70;;;;;;5100263;28;20428;-47
2021/08/16 11:00:15;;;;;;;7.63;4.80;;;26.20;68.70;;;;;;5118760;28;20815;-47
2021/08/16 11:02:42;;;;;;;6.30;4.80;;;26.60;68.10;;;;;;5118115;28;20179;-47
2021/08/16 11:05:09;;;;;;;7.20;4.53;;;26.80;67.60;;;;;;5118327;28;20425;-47
2021/08/16 11:07:35;;;;;;;5.67;4.37;;;28.00;66.00;;;;;;5117760;28;20440;-47
2021/08/16 11:10:09;;;;;;;6.37;4.77;;;29.60;62.30;;;;;;5118336;28;20464;-47
2021/08/16 11:12:43;;;;;;;5.67;4.03;;;29.60;59.20;;;;;;5099487;28;20441;-47
2021/08/16 11:15:18;;;;;;;6.07;4.87;;;29.70;59.00;;;;;;5116940;28;20467;-47
2021/08/16 11:17:44;;;;;;;4.67;4.20;;;29.20;57.80;;;;;;5099316;28;20858;-47
2021/08/16 11:20:15;;;;;;;6.40;4.70;;;29.50;58.50;;;;;;5116987;28;20711;-47
2021/08/16 11:22:45;;;;;;;8.43;4.63;;;28.10;58.90;;;;;;5115824;28;20585;-47
2021/08/16 11:25:12;;;;;;;5.43;4.87;;;26.40;61.40;;;;;;5115905;28;20576;-47
2021/08/16 11:27:42;;;;;;;6.37;4.53;;;26.30;64.60;;;;;;5116123;28;20757;-47
2021/08/16 11:30:09;;;;;;;5.20;3.90;;;26.30;65.10;;;;;;5115872;28;20724;-47
2021/08/16 11:32:37;;;;;;;5.53;4.93;;;26.90;65.10;;;;;;5117322;28;20440;-47
2021/08/16 11:35:04;;;;;;;8.00;5.07;;;28.10;63.30;;;;;;5117568;28;20441;-47
2021/08/16 11:37:33;;;;;;;4.53;3.63;;;28.40;58.90;;;;;;5116308;28;20715;-47
2021/08/16 11:40:00;;;;;;;8.43;5.37;;;28.30;59.60;;;;;;5097653;28;20425;-47
2021/08/16 11:42:26;;;;;;;6.23;4.47;;;28.50;58.80;;;;;;5116167;28;20747;-47
2021/08/16 11:44:55;;;;;;;4.70;3.60;;;28.60;58.70;;;;;;5115865;28;20445;-48
2021/08/16 11:47:33;;;;;;;4.50;4.10;;;29.20;58.80;;;;;;5115901;28;20472;-47
2021/08/16 11:50:12;;;;;;;5.87;4.90;;;29.70;57.10;;;;;;5115430;28;20456;-47
2021/08/16 11:52:40;;;;;;;5.60;4.30;;;29.60;56.00;;;;;;5115424;28;20684;-47
2021/08/16 11:55:06;;;;;;;6.00;4.33;;;31.10;54.80;;;;;;5096851;28;20421;-47
2021/08/16 11:57:33;;;;;;;6.70;4.83;;;31.90;52.30;;;;;;5116148;28;20605;-47
2021/08/16 11:59:59;;;;;;;6.63;5.23;;;33.30;50.70;;;;;;5116216;28;20388;-54
2021/08/16 12:02:29;;;;;;;4.83;4.30;;;31.70;49.80;;;;;;5115955;28;20831;-47
2021/08/16 12:04:57;;;;;;;5.20;4.70;;;29.50;52.30;;;;;;5098269;28;20384;-47
2021/08/16 12:07:27;;;;;;;5.23;4.73;;;28.90;53.10;;;;;;5117485;28;20411;-47
2021/08/16 12:09:54;;;;;;;5.30;4.43;;;28.40;54.50;;;;;;5117172;28;20465;-47
2021/08/16 12:12:25;;;;;;;6.07;4.33;;;28.50;54.10;;;;;;5099514;28;20929;-47
2021/08/16 12:15:09;;;;;;;5.20;4.20;;;28.50;55.00;;;;;;5098413;28;20412;-47
2021/08/16 12:17:35;;;;;;;7.67;4.70;;;28.70;54.20;;;;;;5117544;28;20426;-47
2021/08/16 12:20:19;;;;;;;9.07;4.93;;;28.80;53.90;;;;;;5116848;28;20542;-47
2021/08/16 12:22:53;;;;;;;16.43;5.20;;;27.90;54.00;;;;;;5098734;28;20440;-47
2021/08/16 12:25:19;;;;;;;5.77;5.17;;;26.80;54.90;;;;;;5098889;28;20465;-47
2021/08/16 12:28:02;;;;;;;5.40;4.00;;;25.90;55.00;;;;;;5116617;28;20425;-47
2021/08/16 12:30:31;;;;;;;6.43;5.27;;;26.20;56.00;;;;;;5115793;28;20435;-47
2021/08/16 12:33:11;;;;;;;5.43;4.60;;;26.90;56.20;;;;;;5117401;28;20402;-47
2021/08/16 12:35:37;;;;;;;6.30;4.77;;;27.20;55.70;;;;;;5116930;28;20416;-47
2021/08/16 12:38:04;;;;;;;6.30;4.57;;;27.70;55.40;;;;;;5116977;28;20534;-47
2021/08/16 12:40:30;;;;;;;4.87;4.17;;;27.90;54.10;;;;;;5116630;28;20428;-47